Yuba City, CA (95991)

2:10 AM PDT en Septiembre 02, 2014 (GMT -0700)
Arboga, CA | Change Station
CLOSE
Current Station
Estación meteorológica personal
Location: Olivehurst, CA
Altura: 49 ft
Estaciones meteorológicas cercanas

Alt 49 ft 39.05 °N, 121.58 °W | Updated 11 minutes ago

Despejado
Despejado
67.6 ° F
Sensación térmica 67.6 ° F
N
4.7
Viento Variable Viento desde ESE

Hoy
Alta -- | Baja -- ° F
--% Posibilidad de precipitaciones
Ayer
Alta -- | Baja -- ° F
Precip. -- pul
6:36 AM 7:35 PM
Creciente, 49% visible
Presión 29.73 pul
Visibilidad 10.0 Millas
Nubes Despejado
Punto de rocío 54 ° F
Humedad 61%
Precipitaciones 0.00 pul
Espesor de la nieve No disponible.
UV 0 de una escala de 12
Polen 9.40 de una escala de 12
Ozono Buena
Flu Activity No disponible.
METAR KMYV 020853Z AUTO 13003KT 10SM CLR 21/10 A2972 RMK AO2 SLP066 T02060100 50003

More Conditions Fewer Conditions

Presión 29.73 pul
Visibilidad 10.0 Millas
Nubes Despejado
Punto de rocío 54 ° F
Humedad 61%
Precipitaciones 0.00 pul
Espesor de la nieve No disponible.
UV 0 de una escala de 12
Polen 9.40 de una escala de 12
Ozono Buena
Flu Activity No disponible.
METAR KMYV 020853Z AUTO 13003KT 10SM CLR 21/10 A2972 RMK AO2 SLP066 T02060100 50003

More Conditions Fewer Conditions

10-Day Weather Forecast

Almanac

Astronomía

Sep. 02, 2014 Salida Puesta
Hora real 6:36 AM PDT 7:35 PM PDT
Crepúsculo civil 6:08 AM PDT 8:02 PM PDT
Crepúsculo náutico 5:36 AM PDT 8:34 PM PDT
Crepúsculo astronómico 5:02 AM PDT 9:08 PM PDT
Luna 2:22 PM PDT Sin puesta de luna
Horas de luz 13h 53m
Horas de luz
12h 58m
Tomorrow will be 2m 27s shorter.
Creciente, 49% of the Moon is Illuminated
Hoy
Creciente
Sep 2
Cuarto creciente
Sep 8
Luna llena
Sep 15
Cuarto menguante
Sep 24
Nueva

Extremos de hoy

Máximos del estado Bajos del estado

Community

WunderPhotos

Upload Photos

1,749,587 ¡fotos cargadas!

WunderBlogs® & News

Nearby

Calidad del aire

  Calidad del aire Índice AQ Contaminante
Ayer Buena
OZONE
Real Buena
OZONE
Martes Moderada
OZONE
Miércoles Moderada
OZONE

Grosos de nieve

Estación Profundido Altura
CSS Lab 2 in 6900 ft
Rubicon #2 0 in 7500 ft
Echo Peak 0 in 7800 ft
Fallen Leaf 0 in 6300 ft
Hagan's Meadow 0 in 8000 ft

Actividad de terremotos

Ciudad Distance Mag. Tiempo y dato
Yountville, California 60 Millas 2.6 1:15 PM PDT
2014-09-01
Green Valley, California 59 Millas 2.5 6:37 AM PDT
2014-08-31
Napa, California 65 Millas 3.2 1:56 AM PDT
2014-08-31
Magnitud mínima muestra es 2,5.

Temperaturas de aguas costeras

Lugar Temperatura
Sin partes meteorológicos de las estaciones

Estaciones meteorológicas cercanas